createdAt,value
2023-01-07T00:01:34.981Z,6.05
2023-01-07T00:04:04.334Z,7.63
2023-01-07T00:06:35.406Z,7.28
2023-01-07T00:09:05.592Z,7.00
2023-01-07T00:11:39.532Z,5.63
2023-01-07T00:14:10.197Z,7.97
2023-01-07T00:16:38.840Z,7.72
2023-01-07T00:19:08.702Z,7.18
2023-01-07T00:21:36.082Z,8.68
2023-01-07T00:24:06.618Z,7.90
2023-01-07T00:26:36.386Z,7.85
2023-01-07T00:29:05.041Z,5.43
2023-01-07T00:31:36.528Z,6.80
2023-01-07T00:34:03.575Z,7.82
2023-01-07T00:36:33.916Z,6.83
2023-01-07T00:39:06.770Z,6.07
2023-01-07T00:41:33.868Z,7.13
2023-01-07T00:44:01.010Z,5.63
2023-01-07T00:46:27.967Z,7.55
2023-01-07T00:48:54.841Z,5.78
2023-01-07T00:51:21.746Z,6.63
2023-01-07T00:53:48.890Z,7.20
2023-01-07T00:56:18.919Z,7.78
2023-01-07T00:58:46.357Z,7.85
2023-01-07T01:01:13.985Z,6.45
2023-01-07T01:03:41.543Z,6.50
2023-01-07T01:06:15.247Z,5.68
2023-01-07T01:08:47.192Z,7.72
2023-01-07T01:11:17.113Z,7.37
2023-01-07T01:13:45.934Z,6.20
2023-01-07T01:16:17.610Z,6.38
2023-01-07T01:18:45.813Z,4.63
2023-01-07T01:21:15.849Z,5.88
2023-01-07T01:23:43.809Z,7.97
2023-01-07T01:26:16.216Z,5.90
2023-01-07T01:28:44.096Z,7.13
2023-01-07T01:31:12.039Z,6.40
2023-01-07T01:33:38.981Z,6.60
2023-01-07T01:36:10.207Z,6.70
2023-01-07T01:38:37.735Z,6.35
2023-01-07T01:41:06.024Z,6.13
2023-01-07T01:43:40.187Z,8.32
2023-01-07T01:46:43.542Z,8.05
2023-01-07T01:49:32.807Z,8.43
2023-01-07T01:52:13.817Z,6.10
2023-01-07T01:54:47.872Z,6.53
2023-01-07T01:57:19.796Z,7.57
2023-01-07T01:59:51.743Z,7.85
2023-01-07T02:02:29.600Z,8.38
2023-01-07T02:04:57.634Z,7.30
2023-01-07T02:07:24.960Z,7.33
2023-01-07T02:10:10.351Z,6.60
2023-01-07T02:13:28.106Z,5.35
2023-01-07T02:16:31.725Z,6.07
2023-01-07T02:19:37.632Z,9.03
2023-01-07T02:22:30.610Z,5.97
2023-01-07T02:25:41.931Z,7.00
2023-01-07T02:28:26.464Z,6.03
2023-01-07T02:31:38.867Z,6.37
2023-01-07T02:34:53.992Z,8.25
2023-01-07T02:38:24.532Z,7.00
2023-01-07T02:41:29.512Z,6.25
2023-01-07T02:44:07.012Z,6.30
2023-01-07T02:46:43.385Z,6.30
2023-01-07T02:49:15.888Z,9.77
2023-01-07T02:51:45.018Z,6.50
2023-01-07T02:54:32.280Z,7.67
2023-01-07T02:58:06.647Z,6.13
2023-01-07T03:00:45.311Z,4.82
2023-01-07T03:03:12.049Z,5.77
2023-01-07T03:06:14.905Z,4.65
2023-01-07T03:09:23.376Z,5.10
2023-01-07T03:12:17.953Z,9.07
2023-01-07T03:14:57.747Z,4.63
2023-01-07T03:17:33.482Z,5.67
2023-01-07T03:20:03.450Z,6.87
2023-01-07T03:22:33.503Z,5.37
2023-01-07T03:25:03.519Z,4.32
2023-01-07T03:27:35.281Z,5.43
2023-01-07T03:30:08.929Z,5.45
2023-01-07T03:33:13.914Z,5.93
2023-01-07T03:35:45.441Z,6.97
2023-01-07T03:38:15.023Z,4.67
2023-01-07T03:40:42.011Z,5.27
2023-01-07T03:43:19.024Z,5.07
2023-01-07T03:45:48.231Z,7.30
2023-01-07T03:48:15.171Z,4.90
2023-01-07T03:50:42.017Z,6.75
2023-01-07T03:53:08.880Z,4.03
2023-01-07T03:55:35.716Z,6.80
2023-01-07T03:58:02.558Z,5.55
2023-01-07T04:00:29.371Z,5.13
2023-01-07T04:02:56.174Z,4.25
2023-01-07T04:05:23.510Z,3.37
2023-01-07T04:07:50.369Z,5.00
2023-01-07T04:10:17.180Z,4.32
2023-01-07T04:12:43.929Z,4.13
2023-01-07T04:15:11.259Z,5.75
2023-01-07T04:17:37.992Z,6.13
2023-01-07T04:20:07.799Z,5.03
2023-01-07T04:22:34.746Z,6.80
2023-01-07T04:25:01.570Z,3.25
2023-01-07T04:27:29.720Z,3.28
2023-01-07T04:29:56.483Z,2.72
2023-01-07T04:32:23.338Z,4.00
2023-01-07T04:34:50.104Z,6.18
2023-01-07T04:37:16.854Z,4.13
2023-01-07T04:39:43.769Z,2.33
2023-01-07T04:42:10.531Z,3.73
2023-01-07T04:44:37.341Z,3.00
2023-01-07T04:47:04.173Z,2.83
2023-01-07T04:49:30.935Z,5.35
2023-01-07T04:51:57.665Z,2.30
2023-01-07T04:54:24.474Z,2.50
2023-01-07T04:56:51.366Z,2.83
2023-01-07T04:59:18.085Z,3.67
2023-01-07T05:01:44.964Z,3.00
2023-01-07T05:04:11.882Z,2.00
2023-01-07T05:06:38.743Z,3.20
2023-01-07T05:09:05.773Z,3.17
2023-01-07T05:11:32.599Z,1.27
2023-01-07T05:14:03.318Z,2.00
2023-01-07T05:16:30.139Z,2.33
2023-01-07T05:18:56.934Z,3.00
2023-01-07T05:21:23.701Z,2.58
2023-01-07T05:23:50.497Z,3.27
2023-01-07T05:26:17.222Z,3.17
2023-01-07T05:28:43.948Z,3.15
2023-01-07T05:31:10.862Z,1.42
2023-01-07T05:33:37.774Z,1.90
2023-01-07T05:36:04.875Z,1.60
2023-01-07T05:38:31.665Z,3.50
2023-01-07T05:40:58.406Z,2.90
2023-01-07T05:43:25.201Z,2.27
2023-01-07T05:45:52.017Z,2.40
2023-01-07T05:48:18.824Z,1.37
2023-01-07T05:50:45.629Z,2.07
2023-01-07T05:53:12.858Z,3.73
2023-01-07T05:55:40.051Z,1.83
2023-01-07T05:58:07.796Z,3.00
2023-01-07T06:00:36.640Z,0.90
2023-01-07T06:03:04.986Z,2.27
2023-01-07T06:05:32.360Z,1.53
2023-01-07T06:07:59.186Z,1.48
2023-01-07T06:10:25.993Z,1.47
2023-01-07T06:12:52.822Z,2.30
2023-01-07T06:15:19.710Z,2.73
2023-01-07T06:17:46.481Z,1.63
2023-01-07T06:20:15.113Z,1.48
2023-01-07T06:22:43.287Z,1.07
2023-01-07T06:25:12.041Z,2.80
2023-01-07T06:27:40.761Z,2.77
2023-01-07T06:30:10.965Z,2.20
2023-01-07T06:32:43.069Z,3.30
2023-01-07T06:35:11.889Z,0.87
2023-01-07T06:37:39.030Z,1.17
2023-01-07T06:40:07.427Z,1.38
2023-01-07T06:42:34.392Z,2.40
2023-01-07T06:45:01.261Z,1.23
2023-01-07T06:47:28.032Z,2.00
2023-01-07T06:49:54.762Z,1.05
2023-01-07T06:52:21.708Z,2.53
2023-01-07T06:54:48.755Z,2.27
2023-01-07T06:57:15.720Z,1.53
2023-01-07T06:59:42.507Z,1.55
2023-01-07T07:02:19.416Z,1.92
2023-01-07T07:04:46.294Z,2.43
2023-01-07T07:07:13.785Z,2.13
2023-01-07T07:09:40.715Z,3.23
2023-01-07T07:12:08.237Z,3.17
2023-01-07T07:14:35.706Z,2.53
2023-01-07T07:17:02.491Z,1.40
2023-01-07T07:19:29.371Z,1.27
2023-01-07T07:21:56.392Z,1.90
2023-01-07T07:24:23.716Z,1.87
2023-01-07T07:26:50.859Z,2.80
2023-01-07T07:29:17.653Z,2.67
2023-01-07T07:31:44.585Z,4.00
2023-01-07T07:34:11.502Z,2.27
2023-01-07T07:36:38.293Z,2.83
2023-01-07T07:39:05.661Z,2.70
2023-01-07T07:41:32.492Z,2.40
2023-01-07T07:43:59.311Z,3.83
2023-01-07T07:46:26.106Z,2.80
2023-01-07T07:48:52.915Z,4.13
2023-01-07T07:51:19.742Z,3.87
2023-01-07T07:53:46.491Z,3.67
2023-01-07T07:56:13.293Z,5.33
2023-01-07T07:58:40.106Z,2.73
2023-01-07T08:01:06.878Z,3.40
2023-01-07T08:03:33.805Z,6.57
2023-01-07T08:06:00.725Z,5.20
2023-01-07T08:08:27.505Z,3.53
2023-01-07T08:10:57.652Z,6.77
2023-01-07T08:13:24.551Z,3.37
2023-01-07T08:15:51.688Z,3.38
2023-01-07T08:18:19.718Z,4.73
2023-01-07T08:20:48.008Z,4.40
2023-01-07T08:23:14.872Z,6.00
2023-01-07T08:25:42.173Z,3.23
2023-01-07T08:28:11.639Z,4.77
2023-01-07T08:30:39.026Z,5.20
2023-01-07T08:33:08.327Z,5.43
2023-01-07T08:35:35.544Z,5.10
2023-01-07T08:38:08.352Z,5.87
2023-01-07T08:40:37.066Z,7.50
2023-01-07T08:43:06.885Z,4.85
2023-01-07T08:45:34.152Z,7.97
2023-01-07T08:48:00.986Z,4.80
2023-01-07T08:50:31.009Z,5.97
2023-01-07T08:52:58.754Z,7.07
2023-01-07T08:55:25.892Z,9.73
2023-01-07T08:57:52.691Z,6.20
2023-01-07T09:00:19.812Z,7.07
2023-01-07T09:02:46.849Z,7.95
2023-01-07T09:05:14.252Z,7.50
2023-01-07T09:07:41.083Z,7.23
2023-01-07T09:10:10.263Z,5.63
2023-01-07T09:12:38.128Z,7.25
2023-01-07T09:15:05.752Z,5.78
2023-01-07T09:17:32.559Z,5.47
2023-01-07T09:20:03.815Z,5.00
2023-01-07T09:22:36.471Z,6.00
2023-01-07T09:25:05.251Z,5.57
2023-01-07T09:27:32.065Z,7.23
2023-01-07T09:29:59.027Z,6.07
2023-01-07T09:32:28.031Z,10.00
2023-01-07T09:34:55.429Z,5.83
2023-01-07T09:37:23.019Z,6.77
2023-01-07T09:39:49.819Z,4.43
2023-01-07T09:42:39.130Z,5.03
2023-01-07T09:45:17.898Z,5.68
2023-01-07T09:47:51.100Z,4.85
2023-01-07T09:50:44.844Z,5.63
2023-01-07T09:53:32.714Z,3.50
2023-01-07T09:56:10.435Z,5.70
2023-01-07T09:58:45.067Z,7.97
2023-01-07T10:01:41.257Z,4.03
2023-01-07T10:04:42.034Z,4.55
2023-01-07T10:07:25.539Z,4.65
2023-01-07T10:10:21.789Z,2.73
2023-01-07T10:13:19.565Z,4.13
2023-01-07T10:16:21.567Z,4.03
2023-01-07T10:19:40.815Z,3.03
2023-01-07T10:22:25.125Z,2.83
2023-01-07T10:25:02.194Z,2.60
2023-01-07T10:27:37.687Z,2.70
2023-01-07T10:30:18.843Z,2.57
2023-01-07T10:32:49.794Z,2.33
2023-01-07T10:35:21.257Z,3.22
2023-01-07T10:37:47.993Z,1.75
2023-01-07T10:40:47.128Z,3.60
2023-01-07T10:43:53.410Z,3.72
2023-01-07T10:46:28.842Z,1.67
2023-01-07T10:49:26.864Z,1.83
2023-01-07T10:52:15.327Z,4.03
2023-01-07T10:54:56.404Z,3.28
2023-01-07T10:57:28.568Z,1.90
2023-01-07T11:00:05.187Z,1.55
2023-01-07T11:02:32.428Z,2.25
2023-01-07T11:05:00.148Z,0.75
2023-01-07T11:07:54.599Z,2.00
2023-01-07T11:10:25.823Z,1.02
2023-01-07T11:13:15.339Z,2.45
2023-01-07T11:15:58.684Z,1.77
2023-01-07T11:18:55.828Z,1.45
2023-01-07T11:21:45.666Z,1.23
2023-01-07T11:24:30.040Z,3.20
2023-01-07T11:27:18.510Z,2.58
2023-01-07T11:30:02.585Z,1.17
2023-01-07T11:32:34.533Z,1.85
2023-01-07T11:35:17.875Z,1.58
2023-01-07T11:37:47.908Z,1.02
2023-01-07T11:40:14.777Z,1.00
2023-01-07T11:43:01.835Z,1.30
2023-01-07T11:45:34.926Z,1.40
2023-01-07T11:48:17.841Z,1.70
2023-01-07T11:50:58.109Z,0.70
2023-01-07T11:53:37.108Z,1.30
2023-01-07T11:56:07.464Z,1.30
2023-01-07T11:58:42.919Z,1.98
2023-01-07T12:01:12.407Z,1.00
2023-01-07T12:04:00.973Z,2.55
2023-01-07T12:06:35.979Z,1.15
2023-01-07T12:09:35.580Z,0.88
2023-01-07T12:12:31.190Z,1.08
2023-01-07T12:15:16.759Z,1.35
2023-01-07T12:17:48.882Z,1.38
2023-01-07T12:20:56.557Z,1.38
2023-01-07T12:23:44.085Z,1.13
2023-01-07T12:26:35.101Z,3.20
2023-01-07T12:30:07.150Z,1.00
2023-01-07T12:32:58.994Z,1.20
2023-01-07T12:35:32.078Z,1.05
2023-01-07T12:38:25.246Z,2.83
2023-01-07T12:40:55.437Z,4.15
2023-01-07T12:44:23.321Z,1.00
2023-01-07T12:47:30.987Z,0.90
2023-01-07T12:50:27.259Z,1.23
2023-01-07T12:53:10.237Z,1.77
2023-01-07T12:55:46.485Z,2.33
2023-01-07T12:58:41.054Z,1.08
2023-01-07T13:01:36.795Z,3.28
2023-01-07T13:04:46.702Z,1.52
2023-01-07T13:07:23.492Z,1.95
2023-01-07T13:10:07.336Z,1.55
2023-01-07T13:12:45.780Z,1.48
2023-01-07T13:15:41.013Z,1.85
2023-01-07T13:18:17.469Z,1.38
2023-01-07T13:21:10.005Z,2.08
2023-01-07T13:24:19.060Z,1.52
2023-01-07T13:26:49.263Z,1.25
2023-01-07T13:29:30.710Z,1.70
2023-01-07T13:32:09.548Z,1.25
2023-01-07T13:35:04.054Z,2.42
2023-01-07T13:38:02.482Z,2.08
2023-01-07T13:41:01.602Z,1.83
2023-01-07T13:44:10.835Z,1.60
2023-01-07T13:46:44.554Z,1.45
2023-01-07T13:49:33.432Z,1.87
2023-01-07T13:52:21.483Z,2.03
2023-01-07T13:54:48.196Z,2.83
2023-01-07T13:57:24.049Z,1.77
2023-01-07T13:59:54.586Z,1.00
2023-01-07T14:02:27.624Z,3.03
2023-01-07T14:05:06.839Z,4.10
2023-01-07T14:08:03.984Z,3.83
2023-01-07T14:10:34.914Z,1.50
2023-01-07T14:13:25.904Z,2.43
2023-01-07T14:16:25.779Z,2.63
2023-01-07T14:19:26.508Z,2.30
2023-01-07T14:22:27.338Z,2.97
2023-01-07T14:25:15.366Z,3.37
2023-01-07T14:27:45.200Z,4.27
2023-01-07T14:30:28.425Z,2.95
2023-01-07T14:33:06.936Z,1.60
2023-01-07T14:35:36.577Z,2.53
2023-01-07T14:38:29.912Z,2.50
2023-01-07T14:41:15.846Z,4.83
2023-01-07T14:43:48.485Z,3.35
2023-01-07T14:46:24.540Z,2.28
2023-01-07T14:49:03.559Z,2.30
2023-01-07T14:52:06.381Z,3.40
2023-01-07T14:54:33.089Z,2.50
2023-01-07T14:57:36.024Z,2.37
2023-01-07T15:00:37.262Z,2.63
2023-01-07T15:03:42.414Z,2.87
2023-01-07T15:06:25.096Z,2.97
2023-01-07T15:09:21.901Z,4.07
2023-01-07T15:12:09.821Z,3.65
2023-01-07T15:15:29.030Z,3.00
2023-01-07T15:17:56.645Z,2.50
2023-01-07T15:20:40.233Z,2.40
2023-01-07T15:23:14.383Z,4.13
2023-01-07T15:26:14.346Z,3.63
2023-01-07T15:29:05.442Z,3.20
2023-01-07T15:31:45.110Z,2.10
2023-01-07T15:34:16.855Z,4.28
2023-01-07T15:36:48.310Z,3.83
2023-01-07T15:39:48.551Z,3.05
2023-01-07T15:42:24.843Z,3.13
2023-01-07T15:44:58.202Z,4.73
2023-01-07T15:47:41.548Z,3.70
2023-01-07T15:50:30.440Z,3.87
2023-01-07T15:53:01.256Z,3.47
2023-01-07T15:55:41.443Z,5.03
2023-01-07T15:58:15.931Z,4.47
2023-01-07T16:00:43.532Z,3.73
2023-01-07T16:03:18.250Z,3.53
2023-01-07T16:05:45.273Z,4.50
2023-01-07T16:08:22.896Z,5.47
2023-01-07T16:11:25.332Z,6.63
2023-01-07T16:14:01.315Z,4.17
2023-01-07T16:16:31.835Z,2.03
2023-01-07T16:19:02.074Z,4.37
2023-01-07T16:21:36.807Z,4.13
2023-01-07T16:24:04.987Z,3.63
2023-01-07T16:26:40.714Z,6.27
2023-01-07T16:29:11.278Z,3.33
2023-01-07T16:31:39.336Z,3.73
2023-01-07T16:34:25.348Z,4.67
2023-01-07T16:36:58.860Z,4.83
2023-01-07T16:39:30.491Z,3.87
2023-01-07T16:42:16.992Z,4.53
2023-01-07T16:44:44.304Z,6.33
2023-01-07T16:47:22.505Z,10.77
2023-01-07T16:50:13.587Z,5.17
2023-01-07T16:52:56.626Z,6.57
2023-01-07T16:55:51.440Z,5.80
2023-01-07T16:58:46.867Z,3.77
2023-01-07T17:01:20.176Z,4.37
2023-01-07T17:03:55.503Z,4.93
2023-01-07T17:06:40.861Z,5.40
2023-01-07T17:09:28.368Z,5.67
2023-01-07T17:11:55.960Z,5.30
2023-01-07T17:14:35.033Z,5.33
2023-01-07T17:17:25.588Z,5.00
2023-01-07T17:20:14.225Z,5.10
2023-01-07T17:22:42.458Z,5.20
2023-01-07T17:25:29.112Z,6.07
2023-01-07T17:28:06.356Z,6.47
2023-01-07T17:30:36.519Z,7.00
2023-01-07T17:33:04.131Z,6.50
2023-01-07T17:35:30.893Z,9.23
2023-01-07T17:37:57.821Z,8.77
2023-01-07T17:40:24.668Z,7.37
2023-01-07T17:43:10.149Z,7.23
2023-01-07T17:45:36.958Z,7.77
2023-01-07T17:48:13.705Z,9.07
2023-01-07T17:50:41.845Z,9.43
2023-01-07T17:53:23.343Z,8.33
2023-01-07T17:55:50.204Z,10.33
2023-01-07T17:58:30.147Z,14.23
2023-01-07T18:00:59.998Z,11.07
2023-01-07T18:03:27.641Z,12.03
2023-01-07T18:05:54.600Z,11.30
2023-01-07T18:08:21.545Z,12.97
2023-01-07T18:11:09.996Z,14.23
2023-01-07T18:13:37.158Z,15.57
2023-01-07T18:16:04.346Z,15.57
2023-01-07T18:18:31.313Z,20.17
2023-01-07T18:20:59.430Z,17.83
2023-01-07T18:23:26.373Z,14.60
2023-01-07T18:25:53.390Z,15.63
2023-01-07T18:28:20.148Z,14.90
2023-01-07T18:30:47.313Z,14.87
2023-01-07T18:33:14.268Z,10.33
2023-01-07T18:35:41.156Z,9.13
2023-01-07T18:38:16.036Z,8.70
2023-01-07T18:40:43.712Z,9.30
2023-01-07T18:43:19.615Z,8.07
2023-01-07T18:45:48.192Z,8.30
2023-01-07T18:48:18.012Z,6.93
2023-01-07T18:50:49.784Z,8.33
2023-01-07T18:53:19.164Z,6.00
2023-01-07T18:55:46.469Z,5.37
2023-01-07T18:58:14.959Z,11.53
2023-01-07T19:00:42.182Z,11.90
2023-01-07T19:03:10.841Z,7.87
2023-01-07T19:05:40.585Z,10.03
2023-01-07T19:08:07.779Z,15.30
2023-01-07T19:10:34.843Z,9.73
2023-01-07T19:13:01.783Z,11.90
2023-01-07T19:15:28.777Z,11.20
2023-01-07T19:17:56.001Z,10.97
2023-01-07T19:20:22.955Z,10.30
2023-01-07T19:22:49.738Z,11.07
2023-01-07T19:25:16.643Z,8.97
2023-01-07T19:27:43.557Z,9.97
2023-01-07T19:30:11.980Z,9.60
2023-01-07T19:32:38.808Z,8.80
2023-01-07T19:35:06.381Z,12.27
2023-01-07T19:37:33.218Z,8.47
2023-01-07T19:40:00.010Z,12.83
2023-01-07T19:42:26.858Z,7.20
2023-01-07T19:44:53.718Z,8.77
2023-01-07T19:47:23.972Z,3.67
2023-01-07T19:49:50.946Z,7.97
2023-01-07T19:52:17.768Z,6.83
2023-01-07T19:54:44.579Z,4.83
2023-01-07T19:57:11.488Z,6.17
2023-01-07T19:59:38.227Z,9.67
2023-01-07T20:02:05.219Z,3.53
2023-01-07T20:04:32.131Z,6.67
2023-01-07T20:06:59.023Z,5.67
2023-01-07T20:09:25.869Z,5.87
2023-01-07T20:11:52.764Z,7.10
2023-01-07T20:14:19.510Z,5.13
2023-01-07T20:16:46.374Z,4.93
2023-01-07T20:19:13.613Z,5.47
2023-01-07T20:21:40.560Z,4.70
2023-01-07T20:24:08.077Z,6.33
2023-01-07T20:26:38.090Z,5.23
2023-01-07T20:29:05.284Z,8.57
2023-01-07T20:31:32.956Z,6.60
2023-01-07T20:34:00.373Z,5.00
2023-01-07T20:36:30.867Z,5.30
2023-01-07T20:39:03.313Z,4.40
2023-01-07T20:41:30.124Z,4.30
2023-01-07T20:44:00.903Z,6.77
2023-01-07T20:46:30.064Z,3.77
2023-01-07T20:48:58.027Z,4.80
2023-01-07T20:51:25.395Z,3.77
2023-01-07T20:53:52.717Z,5.30
2023-01-07T20:56:23.048Z,4.83
2023-01-07T20:58:50.059Z,7.30
2023-01-07T21:01:20.462Z,5.07
2023-01-07T21:03:47.387Z,5.00
2023-01-07T21:06:17.571Z,5.43
2023-01-07T21:08:47.164Z,5.43
2023-01-07T21:11:18.228Z,5.60
2023-01-07T21:13:45.914Z,6.00
2023-01-07T21:16:13.852Z,6.37
2023-01-07T21:18:42.045Z,6.37
2023-01-07T21:21:15.811Z,5.35
2023-01-07T21:23:43.036Z,6.27
2023-01-07T21:26:10.339Z,7.73
2023-01-07T21:28:37.314Z,4.40
2023-01-07T21:31:08.798Z,5.35
2023-01-07T21:33:37.637Z,5.20
2023-01-07T21:36:25.882Z,7.07
2023-01-07T21:38:56.143Z,5.80
2023-01-07T21:41:25.046Z,5.60
2023-01-07T21:43:52.022Z,6.63
2023-01-07T21:46:20.553Z,6.32
2023-01-07T21:48:47.421Z,5.68
2023-01-07T21:51:19.940Z,5.30
2023-01-07T21:53:46.912Z,5.17
2023-01-07T21:56:16.937Z,6.50
2023-01-07T21:58:46.565Z,6.50
2023-01-07T22:01:15.031Z,6.80
2023-01-07T22:03:47.013Z,8.68
2023-01-07T22:06:21.515Z,5.57
2023-01-07T22:08:49.247Z,5.25
2023-01-07T22:11:17.756Z,6.13
2023-01-07T22:13:44.742Z,5.87
2023-01-07T22:16:11.569Z,4.90
2023-01-07T22:18:38.452Z,7.00
2023-01-07T22:21:05.425Z,5.20
2023-01-07T22:23:32.241Z,5.85
2023-01-07T22:26:07.918Z,5.70
2023-01-07T22:28:37.523Z,5.95
2023-01-07T22:31:25.122Z,5.23
2023-01-07T22:33:52.831Z,5.70
2023-01-07T22:36:34.795Z,5.60
2023-01-07T22:39:09.736Z,5.00
2023-01-07T22:41:37.515Z,7.97
2023-01-07T22:44:15.959Z,5.53
2023-01-07T22:46:50.199Z,5.82
2023-01-07T22:49:18.770Z,7.10
2023-01-07T22:51:48.917Z,4.72
2023-01-07T22:54:17.244Z,3.95
2023-01-07T22:56:45.223Z,3.60
2023-01-07T22:59:12.268Z,3.97
2023-01-07T23:01:39.879Z,5.97
2023-01-07T23:04:06.786Z,5.78
2023-01-07T23:06:33.710Z,3.60
2023-01-07T23:09:00.903Z,3.40
2023-01-07T23:11:46.659Z,4.38
2023-01-07T23:14:22.288Z,5.28
2023-01-07T23:16:51.362Z,3.60
2023-01-07T23:19:20.473Z,5.13
2023-01-07T23:21:51.092Z,4.25
2023-01-07T23:24:18.608Z,5.18
2023-01-07T23:26:47.620Z,4.40
2023-01-07T23:29:14.548Z,4.87
2023-01-07T23:31:41.444Z,5.25
2023-01-07T23:34:08.914Z,4.70
2023-01-07T23:36:39.187Z,5.20
2023-01-07T23:39:06.999Z,5.13
2023-01-07T23:41:34.127Z,5.18
2023-01-07T23:44:00.974Z,7.47
2023-01-07T23:46:27.872Z,4.53
2023-01-07T23:48:54.603Z,5.82
2023-01-07T23:51:22.300Z,4.20
2023-01-07T23:53:49.499Z,4.32
2023-01-07T23:56:20.740Z,5.63
2023-01-07T23:58:49.626Z,3.57
